PDT,Max TemperatureF,Mean TemperatureF,Min TemperatureF,Max Dew PointF,MeanDew PointF,Min DewpointF,Max Humidity, Mean Humidity, Min Humidity, Max Sea Level PressureIn, Mean Sea Level PressureIn, Min Sea Level PressureIn, Max VisibilityMiles, Mean VisibilityMiles, Min VisibilityMiles, Max Wind SpeedMPH, Mean Wind SpeedMPH, Max Gust SpeedMPH,PrecipitationIn, CloudCover, Events, WindDirDegrees
2013-10-1,92,78,64,32,29,25,28,19,9,29.85,29.77,29.70,10,10,10,20,9,24,0.00,0,,195
2013-10-2,91,79,67,37,32,27,29,20,11,29.79,29.71,29.64,10,10,10,24,12,31,0.00,1,,191
2013-10-3,86,75,63,33,23,2,27,17,7,29.94,29.71,29.62,10,10,10,25,14,35,0.00,0,,224
2013-10-4,72,65,58,21,18,12,21,18,14,30.23,30.11,29.96,10,10,10,22,13,30,0.00,0,,22
2013-10-5,76,66,55,21,19,16,26,18,10,30.35,30.25,30.19,10,10,10,15,5,18,0.00,0,,65
2013-10-6,82,68,53,21,15,10,28,18,7,30.22,30.11,29.99,10,10,10,12,6,13,0.00,0,,198
2013-10-7,82,70,58,23,17,8,19,15,10,29.99,29.89,29.77,10,10,10,14,6,16,0.00,5,,193
2013-10-8,84,71,58,25,17,11,22,15,7,29.77,29.67,29.54,10,10,10,22,10,30,0.00,1,,200
2013-10-9,67,60,52,42,34,27,59,40,21,29.64,29.55,29.47,10,10,10,22,14,29,T,7,Rain,197
2013-10-10,67,59,51,43,40,38,66,50,34,29.91,29.79,29.64,10,10,10,16,6,20,T,5,Rain,193
2013-10-11,72,62,52,40,38,36,59,43,27,30.02,29.95,29.90,10,10,10,9,5,10,0.00,0,,207
2013-10-12,77,66,54,39,35,30,55,38,21,29.95,29.86,29.76,10,10,10,14,6,17,0.00,0,,191
2013-10-13,76,68,60,35,30,25,36,26,16,29.97,29.81,29.73,10,10,10,28,12,33,0.00,1,,231
2013-10-14,73,64,54,35,32,26,43,31,19,30.10,30.02,29.97,10,10,10,10,5,15,0.00,0,,175
2013-10-15,74,64,53,29,26,22,38,27,15,30.06,30.00,29.94,10,10,10,20,8,24,0.00,0,,300
2013-10-16,72,63,54,27,22,19,32,23,14,30.17,30.07,30.01,10,10,10,10,4,15,0.00,0,,180
2013-10-17,76,64,51,23,20,16,32,21,10,30.05,29.96,29.88,10,10,10,13,5,14,0.00,1,,199
2013-10-18,78,66,53,24,21,19,28,20,11,30.08,30.01,29.94,10,10,10,13,6,14,0.00,0,,197
2013-10-19,80,67,53,24,21,18,29,20,10,30.09,30.01,29.93,10,10,10,13,5,14,0.00,0,,198
2013-10-20,83,69,54,22,18,13,26,17,8,29.95,29.88,29.80,10,10,10,12,6,13,0.00,0,,197
2013-10-21,82,69,56,25,21,17,23,17,11,30.01,29.95,29.88,10,10,10,12,6,13,0.00,1,,207
2013-10-22,82,70,57,26,23,19,28,19,10,30.05,29.98,29.91,10,10,10,13,6,14,0.00,0,,204
2013-10-23,82,70,57,24,22,18,24,17,9,29.95,29.89,29.83,10,10,10,12,7,13,0.00,4,,202
2013-10-24,83,71,58,30,22,19,24,17,10,29.96,29.88,29.84,10,10,10,13,6,14,0.00,3,,195
2013-10-25,84,72,59,32,28,24,33,23,12,30.06,30.00,29.95,10,10,10,12,6,14,0.00,0,,201
2013-10-26,84,71,58,28,26,23,28,21,13,30.13,30.04,29.96,10,10,10,14,6,15,0.00,1,,212
2013-10-27,85,72,58,31,24,20,25,18,10,29.95,29.73,29.46,10,10,10,30,12,43,0.00,2,,193
2013-10-28,68,61,54,34,30,23,43,32,20,29.71,29.55,29.38,10,10,9,35,23,48,0.00,2,,203
2013-10-29,63,57,50,35,33,28,54,41,27,29.89,29.81,29.73,10,10,10,23,13,30,0.00,4,,210
2013-10-30,65,56,47,37,32,28,65,47,28,30.03,29.98,29.90,10,10,10,13,5,20,0.00,1,,198
2013-10-31,68,58,48,29,26,25,42,32,21,30.14,30.08,30.03,10,10,10,12,5,14,0.00,0,,196